Time;durP1;ratioP1;P1;durP2;ratioP2;P2;SDS_P1;SDS_P2;PMS_P1;PMS_P2;Temp;Humidity;BMP_temperature;BMP_pressure;BME280_temperature;BME280_humidity;BME280_pressure;Samples;Min_cycle;Max_cycle;Signal;HPM_P1;HPM_P2
2022/07/15 00:00:13;;;;;;;9.20;3.63;;;15.00;99.90;;;;;;5000357;28;20812;-60
2022/07/15 00:02:40;;;;;;;5.90;3.50;;;15.00;99.90;;;;;;5000116;28;20451;-60
2022/07/15 00:05:11;;;;;;;4.33;3.10;;;15.00;99.90;;;;;;5000274;28;20731;-60
2022/07/15 00:07:38;;;;;;;6.83;4.00;;;14.90;99.90;;;;;;5000135;28;20439;-60
2022/07/15 00:10:15;;;;;;;5.70;4.23;;;14.90;99.90;;;;;;4999982;28;20463;-59
2022/07/15 00:12:51;;;;;;;9.93;4.30;;;14.80;99.90;;;;;;5000289;28;20493;-60
2022/07/15 00:15:19;;;;;;;8.37;4.13;;;14.80;99.90;;;;;;5000505;28;20442;-60
2022/07/15 00:17:47;;;;;;;6.63;4.03;;;14.80;99.90;;;;;;4999671;28;20465;-60
2022/07/15 00:20:17;;;;;;;5.13;3.77;;;14.80;99.90;;;;;;5000150;28;20567;-60
2022/07/15 00:22:45;;;;;;;5.80;3.87;;;14.80;99.90;;;;;;5000171;28;20435;-60
2022/07/15 00:25:15;;;;;;;5.00;4.07;;;14.70;99.90;;;;;;4999813;28;20449;-60
2022/07/15 00:28:02;;;;;;;9.83;4.67;;;14.70;99.90;;;;;;4999123;28;20440;-60
2022/07/15 00:30:34;;;;;;;5.57;3.77;;;14.60;99.90;;;;;;4999318;28;20832;-60
2022/07/15 00:33:01;;;;;;;5.60;3.90;;;14.60;99.90;;;;;;4999849;28;20756;-60
2022/07/15 00:35:29;;;;;;;7.80;4.93;;;14.50;99.90;;;;;;4999458;28;20898;-60
2022/07/15 00:37:56;;;;;;;7.80;4.77;;;14.50;99.90;;;;;;4998999;28;20481;-60
2022/07/15 00:40:24;;;;;;;9.00;4.60;;;14.50;99.90;;;;;;4999386;28;20499;-60
2022/07/15 00:42:51;;;;;;;5.07;4.23;;;14.50;99.90;;;;;;5000032;28;20468;-60
2022/07/15 00:45:25;;;;;;;6.60;4.00;;;14.50;99.90;;;;;;4999128;28;20467;-60
2022/07/15 00:47:54;;;;;;;8.20;4.20;;;14.40;99.90;;;;;;4999009;28;20475;-60
2022/07/15 00:50:25;;;;;;;8.77;4.57;;;14.40;99.90;;;;;;4999286;28;20468;-60
2022/07/15 00:53:01;;;;;;;6.87;4.40;;;14.30;99.90;;;;;;4999478;28;20907;-60
2022/07/15 00:55:33;;;;;;;7.60;5.00;;;14.40;99.90;;;;;;4999127;28;20492;-60
2022/07/15 00:58:04;;;;;;;7.83;4.43;;;14.40;99.90;;;;;;4998922;28;20552;-60
2022/07/15 01:00:33;;;;;;;7.70;4.50;;;14.50;99.90;;;;;;4999514;28;20471;-60
2022/07/15 01:03:02;;;;;;;5.50;4.43;;;14.40;99.90;;;;;;4999142;28;20505;-60
2022/07/15 01:05:30;;;;;;;9.00;4.50;;;14.40;99.90;;;;;;4998711;28;20471;-60
2022/07/15 01:07:58;;;;;;;9.47;4.83;;;14.40;99.90;;;;;;4998798;28;20469;-60
2022/07/15 01:10:25;;;;;;;6.23;4.13;;;14.50;99.90;;;;;;4999177;28;20468;-60
2022/07/15 01:12:53;;;;;;;8.07;4.10;;;14.40;99.90;;;;;;4999242;28;20500;-60
2022/07/15 01:15:21;;;;;;;9.30;5.07;;;14.40;99.90;;;;;;4998701;28;20941;-60
2022/07/15 01:17:50;;;;;;;6.13;3.90;;;14.40;99.90;;;;;;4998272;28;20465;-60
2022/07/15 01:20:17;;;;;;;6.17;4.00;;;14.50;99.90;;;;;;4998609;28;20563;-60
2022/07/15 01:22:47;;;;;;;5.10;4.03;;;14.50;99.90;;;;;;4999439;28;20524;-60
2022/07/15 01:25:17;;;;;;;9.30;4.80;;;14.50;99.90;;;;;;4999059;28;20432;-60
2022/07/15 01:27:45;;;;;;;8.40;4.63;;;14.40;99.90;;;;;;4997858;28;20503;-60
2022/07/15 01:30:12;;;;;;;6.47;4.70;;;14.50;99.90;;;;;;4998456;28;20865;-61
2022/07/15 01:32:40;;;;;;;7.33;4.17;;;14.50;99.90;;;;;;4998636;28;20446;-60
2022/07/15 01:35:08;;;;;;;7.33;4.47;;;14.40;99.90;;;;;;4998748;28;20905;-61
2022/07/15 01:37:39;;;;;;;8.00;5.00;;;14.30;99.90;;;;;;4997953;28;20925;-60
2022/07/15 01:40:09;;;;;;;6.10;4.50;;;14.20;99.90;;;;;;4998105;28;20584;-60
2022/07/15 01:42:42;;;;;;;5.70;4.27;;;14.10;99.90;;;;;;4998513;28;20465;-60
2022/07/15 01:45:11;;;;;;;5.70;4.40;;;14.10;99.90;;;;;;4998673;28;20493;-60
2022/07/15 01:47:44;;;;;;;6.13;4.40;;;14.10;99.90;;;;;;4998396;28;20446;-59
2022/07/15 01:50:13;;;;;;;7.13;5.30;;;14.10;99.90;;;;;;4998320;28;20916;-59
2022/07/15 01:52:41;;;;;;;9.20;4.17;;;14.10;99.90;;;;;;4998683;28;20461;-60
2022/07/15 01:55:12;;;;;;;9.37;4.97;;;14.10;99.90;;;;;;4998331;28;20439;-60
2022/07/15 01:57:41;;;;;;;8.03;4.70;;;14.10;99.90;;;;;;4997918;28;20471;-60
2022/07/15 02:00:11;;;;;;;7.80;4.97;;;14.10;99.90;;;;;;4997813;28;20591;-60
2022/07/15 02:02:38;;;;;;;8.37;3.90;;;14.10;99.90;;;;;;4998406;28;20493;-60
2022/07/15 02:05:08;;;;;;;9.27;4.57;;;14.10;99.90;;;;;;4997564;28;20885;-60
2022/07/15 02:07:36;;;;;;;4.40;4.00;;;14.10;99.90;;;;;;4997334;28;20468;-60
2022/07/15 02:10:04;;;;;;;6.13;4.67;;;14.10;99.90;;;;;;4996875;28;20818;-60
2022/07/15 02:12:36;;;;;;;8.13;4.73;;;14.10;99.90;;;;;;4997732;28;20534;-59
2022/07/15 02:15:03;;;;;;;7.57;4.50;;;14.10;99.90;;;;;;4998043;28;20908;-60
2022/07/15 02:17:30;;;;;;;6.80;3.93;;;14.10;99.90;;;;;;4998037;28;20444;-60
2022/07/15 02:19:57;;;;;;;6.60;4.53;;;14.10;99.90;;;;;;4997447;28;20497;-60
2022/07/15 02:22:28;;;;;;;9.83;5.60;;;14.20;99.90;;;;;;4997887;28;20446;-60
2022/07/15 02:24:55;;;;;;;5.83;4.10;;;14.20;99.90;;;;;;4997923;28;20435;-59
2022/07/15 02:27:23;;;;;;;7.00;4.63;;;14.20;99.90;;;;;;4998006;28;20491;-60
2022/07/15 02:29:51;;;;;;;10.47;4.87;;;14.20;99.90;;;;;;4997437;28;20436;-60
2022/07/15 02:32:22;;;;;;;7.43;4.93;;;14.30;99.90;;;;;;4997563;28;20465;-60
2022/07/15 02:34:49;;;;;;;8.17;5.03;;;14.30;99.90;;;;;;4997860;28;20445;-60
2022/07/15 02:37:16;;;;;;;11.03;4.80;;;14.30;99.90;;;;;;4997358;28;20854;-59
2022/07/15 02:39:44;;;;;;;5.03;4.20;;;14.40;99.90;;;;;;5003606;28;20481;-60
2022/07/15 02:42:11;;;;;;;6.90;5.00;;;14.40;99.90;;;;;;5017475;28;20515;-59
2022/07/15 02:44:38;;;;;;;6.07;3.80;;;14.30;99.90;;;;;;5017372;28;20464;-60
2022/07/15 02:47:07;;;;;;;9.10;4.77;;;14.30;99.90;;;;;;5017549;28;20468;-60
2022/07/15 02:49:37;;;;;;;7.33;4.37;;;14.30;99.90;;;;;;5016588;28;20515;-60
2022/07/15 02:52:05;;;;;;;11.20;5.20;;;14.30;99.90;;;;;;5017191;28;20558;-61
2022/07/15 02:54:32;;;;;;;9.33;5.03;;;14.30;99.90;;;;;;5017582;28;20458;-60
2022/07/15 02:56:59;;;;;;;6.20;4.27;;;14.20;99.90;;;;;;5017454;28;20562;-60
2022/07/15 02:59:29;;;;;;;8.23;4.40;;;14.10;99.90;;;;;;5016588;28;20492;-59
2022/07/15 03:02:01;;;;;;;9.47;4.43;;;14.00;99.90;;;;;;5017238;28;20464;-59
2022/07/15 03:04:30;;;;;;;6.97;4.40;;;14.10;99.90;;;;;;5017138;28;20844;-59
2022/07/15 03:06:57;;;;;;;7.17;4.20;;;14.10;99.90;;;;;;5017309;28;20827;-60
2022/07/15 03:09:27;;;;;;;9.67;5.03;;;14.10;99.90;;;;;;5016949;28;20796;-58
2022/07/15 03:11:54;;;;;;;5.93;4.80;;;14.20;99.90;;;;;;5016883;28;20470;-60
2022/07/15 03:14:24;;;;;;;8.07;4.50;;;14.10;99.90;;;;;;5016873;28;20439;-60
2022/07/15 03:16:53;;;;;;;11.50;5.23;;;14.00;99.90;;;;;;5016455;28;20438;-60
2022/07/15 03:19:21;;;;;;;10.97;4.77;;;13.90;99.90;;;;;;5017311;28;20473;-59
2022/07/15 03:21:52;;;;;;;8.23;4.23;;;13.70;99.90;;;;;;5020668;28;20470;-60
2022/07/15 03:24:20;;;;;;;8.30;4.73;;;13.70;99.90;;;;;;5020385;28;20467;-60
2022/07/15 03:26:50;;;;;;;21.00;4.90;;;13.70;99.90;;;;;;5020923;28;20908;-60
2022/07/15 03:29:17;;;;;;;8.10;3.77;;;13.70;99.90;;;;;;5020559;28;20452;-58
2022/07/15 03:31:45;;;;;;;7.93;4.03;;;13.70;99.90;;;;;;5020350;28;20930;-60
2022/07/15 03:34:13;;;;;;;7.23;4.27;;;13.70;99.90;;;;;;5020165;28;20525;-60
2022/07/15 03:36:40;;;;;;;9.03;4.40;;;13.70;99.90;;;;;;5020302;28;20919;-60
2022/07/15 03:39:09;;;;;;;6.93;4.50;;;13.60;99.90;;;;;;5020280;28;20502;-59
2022/07/15 03:41:40;;;;;;;6.20;3.93;;;13.60;99.90;;;;;;5020139;28;20754;-60
2022/07/15 03:44:12;;;;;;;6.87;4.60;;;13.60;99.90;;;;;;5020149;28;20498;-59
2022/07/15 03:46:39;;;;;;;6.70;4.20;;;13.50;99.90;;;;;;5020056;28;20527;-60
2022/07/15 03:49:13;;;;;;;7.20;5.20;;;13.50;1.00;;;;;;5020146;28;20742;-60
2022/07/15 03:51:43;;;;;;;7.17;4.93;;;13.60;1.00;;;;;;5020178;28;20896;-60
2022/07/15 03:54:14;;;;;;;4.97;4.27;;;13.50;99.90;;;;;;5020372;28;20561;-60
2022/07/15 03:56:41;;;;;;;7.47;4.30;;;13.50;99.90;;;;;;5020227;28;20471;-60
2022/07/15 03:59:08;;;;;;;9.43;4.00;;;13.40;1.00;;;;;;5019264;28;20477;-59
2022/07/15 04:01:36;;;;;;;7.10;4.13;;;13.40;1.00;;;;;;5020225;28;20882;-60
2022/07/15 04:04:04;;;;;;;5.27;4.30;;;13.30;1.00;;;;;;5019895;28;20474;-60
2022/07/15 04:06:36;;;;;;;6.83;4.30;;;13.30;1.00;;;;;;5019630;28;20434;-60
2022/07/15 04:09:04;;;;;;;6.47;3.83;;;13.30;1.00;;;;;;5019583;28;20495;-60
2022/07/15 04:11:35;;;;;;;10.53;4.60;;;13.30;1.00;;;;;;5019915;28;20839;-60
2022/07/15 04:14:04;;;;;;;5.30;4.00;;;13.30;1.00;;;;;;5019824;28;20465;-56
2022/07/15 04:16:33;;;;;;;6.87;3.80;;;13.30;1.00;;;;;;5019940;28;20493;-60
2022/07/15 04:19:01;;;;;;;8.80;4.50;;;13.30;1.00;;;;;;5019696;28;20466;-60
2022/07/15 04:21:30;;;;;;;6.63;4.07;;;13.30;1.00;;;;;;5019590;28;20877;-60
2022/07/15 04:23:58;;;;;;;9.70;4.60;;;13.40;1.00;;;;;;5019548;28;20822;-60
2022/07/15 04:26:27;;;;;;;8.63;4.70;;;13.50;1.00;;;;;;5018874;28;20512;-61
2022/07/15 04:28:56;;;;;;;9.47;5.47;;;13.60;1.00;;;;;;5019336;28;20464;-60
2022/07/15 04:31:28;;;;;;;4.40;4.00;;;13.70;1.00;;;;;;5018102;28;20514;-60
2022/07/15 04:33:56;;;;;;;6.90;3.97;;;13.80;1.00;;;;;;5018781;28;20540;-59
2022/07/15 04:36:23;;;;;;;10.80;5.37;;;13.90;99.90;;;;;;5018763;28;20495;-61
2022/07/15 04:38:50;;;;;;;5.00;4.13;;;14.10;99.90;;;;;;5019580;28;20438;-60
2022/07/15 04:41:19;;;;;;;10.27;4.77;;;14.20;99.90;;;;;;5019412;28;20448;-61
2022/07/15 04:43:46;;;;;;;9.57;4.33;;;14.30;99.90;;;;;;5018980;28;20782;-61
2022/07/15 04:46:17;;;;;;;7.60;4.60;;;14.40;99.90;;;;;;5019317;28;20442;-61
2022/07/15 04:51:31;;;;;;;7.03;4.40;;;14.40;99.90;;;;;;5018325;28;20405;-60
2022/07/15 04:54:02;;;;;;;10.93;4.30;;;14.40;99.90;;;;;;5018085;28;20463;-61
2022/07/15 04:56:29;;;;;;;7.97;3.90;;;14.30;99.90;;;;;;5017928;28;20514;-61
2022/07/15 04:58:56;;;;;;;7.07;3.90;;;14.10;99.90;;;;;;5018759;28;20434;-60
2022/07/15 05:01:25;;;;;;;8.53;4.23;;;14.10;99.90;;;;;;5018555;28;20555;-59
2022/07/15 05:03:52;;;;;;;9.03;4.03;;;13.90;99.90;;;;;;5018825;28;20456;-60
2022/07/15 05:06:19;;;;;;;8.80;3.87;;;14.00;99.90;;;;;;5016931;28;20453;-60
2022/07/15 05:08:50;;;;;;;10.43;4.00;;;14.00;99.90;;;;;;5018352;28;20464;-59
2022/07/15 05:11:18;;;;;;;9.77;4.30;;;14.10;99.90;;;;;;5018411;28;20494;-60
2022/07/15 05:13:46;;;;;;;8.13;4.63;;;14.10;99.90;;;;;;5018734;28;20531;-60
2022/07/15 05:16:13;;;;;;;7.13;4.20;;;14.00;99.90;;;;;;5018328;28;20479;-59
2022/07/15 05:18:42;;;;;;;10.87;4.67;;;14.10;99.90;;;;;;5018662;28;20541;-60
2022/07/15 05:21:09;;;;;;;8.50;3.60;;;14.20;99.90;;;;;;5018463;28;20569;-58
2022/07/15 05:23:36;;;;;;;9.90;4.80;;;14.20;99.90;;;;;;5017895;28;20468;-59
2022/07/15 05:26:04;;;;;;;12.57;4.60;;;14.30;99.90;;;;;;5018662;28;20905;-60
2022/07/15 05:28:34;;;;;;;5.87;4.00;;;14.30;99.90;;;;;;5018232;28;20490;-61
2022/07/15 05:31:01;;;;;;;8.73;4.30;;;14.60;99.90;;;;;;5018122;28;20475;-60
2022/07/15 05:33:29;;;;;;;8.07;4.40;;;14.60;99.90;;;;;;5016479;28;20523;-61
2022/07/15 05:35:58;;;;;;;10.47;4.10;;;14.60;99.90;;;;;;5018037;28;20803;-61
2022/07/15 05:38:26;;;;;;;13.80;4.57;;;14.70;99.90;;;;;;4997547;28;20443;-61
2022/07/15 05:40:57;;;;;;;4.87;3.40;;;14.90;99.90;;;;;;4997298;28;20497;-60
2022/07/15 05:43:28;;;;;;;6.00;3.80;;;15.00;99.90;;;;;;4996789;28;20813;-61
2022/07/15 05:45:58;;;;;;;5.23;3.13;;;15.10;99.90;;;;;;4998285;28;20465;-61
2022/07/15 05:48:25;;;;;;;6.40;3.30;;;15.40;99.90;;;;;;4998243;28;20508;-61
2022/07/15 05:50:53;;;;;;;7.13;3.20;;;15.40;99.90;;;;;;4997278;28;20457;-61
2022/07/15 05:53:27;;;;;;;5.43;3.00;;;15.50;99.90;;;;;;4997379;28;20556;-59
2022/07/15 05:55:55;;;;;;;5.53;3.17;;;15.60;99.90;;;;;;4998154;28;20503;-61
2022/07/15 05:58:22;;;;;;;8.77;2.43;;;15.50;99.90;;;;;;4998023;28;20742;-61
2022/07/15 06:00:51;;;;;;;8.27;3.10;;;15.80;99.90;;;;;;4997916;28;20491;-61
2022/07/15 06:03:21;;;;;;;5.13;2.63;;;16.10;99.90;;;;;;4996139;28;20551;-61
2022/07/15 06:05:48;;;;;;;6.23;3.03;;;16.40;99.90;;;;;;4996611;28;20461;-61
2022/07/15 06:08:15;;;;;;;9.37;4.10;;;16.60;99.90;;;;;;4997577;28;20468;-62
2022/07/15 06:10:45;;;;;;;6.23;3.10;;;16.90;99.90;;;;;;4997567;28;20435;-61
2022/07/15 06:13:12;;;;;;;9.43;3.33;;;17.10;99.90;;;;;;4997750;28;20472;-61
2022/07/15 06:15:40;;;;;;;6.20;3.03;;;16.60;99.90;;;;;;4997238;28;20465;-61
2022/07/15 06:18:10;;;;;;;8.47;3.67;;;16.70;99.90;;;;;;4997121;28;20520;-62
2022/07/15 06:20:40;;;;;;;6.43;3.43;;;16.50;99.90;;;;;;4997440;28;20479;-61
2022/07/15 06:23:09;;;;;;;4.57;2.93;;;17.00;99.90;;;;;;4997996;28;20487;-61
2022/07/15 06:25:37;;;;;;;3.53;2.93;;;17.10;99.90;;;;;;4996538;28;20472;-61
2022/07/15 06:28:06;;;;;;;7.37;2.80;;;17.00;99.90;;;;;;4997328;28;20468;-62
2022/07/15 06:30:34;;;;;;;9.93;3.20;;;17.20;99.90;;;;;;4997306;28;20465;-62
2022/07/15 06:33:01;;;;;;;8.90;3.60;;;17.60;99.90;;;;;;4997004;28;20468;-62
2022/07/15 06:35:35;;;;;;;6.60;2.50;;;17.30;99.90;;;;;;4997331;28;20814;-61
2022/07/15 06:38:05;;;;;;;6.67;2.83;;;17.30;99.90;;;;;;5012868;28;20510;-61
2022/07/15 06:40:32;;;;;;;7.10;3.13;;;17.00;99.90;;;;;;5017057;28;20952;-62
2022/07/15 06:42:59;;;;;;;7.50;3.30;;;17.10;99.90;;;;;;5017472;28;20562;-61
2022/07/15 06:45:28;;;;;;;4.67;2.67;;;17.90;99.90;;;;;;5016864;28;20438;-61
2022/07/15 06:47:59;;;;;;;3.80;2.30;;;18.20;99.90;;;;;;5016778;28;20470;-61
2022/07/15 06:50:26;;;;;;;6.23;3.20;;;17.80;99.90;;;;;;5014705;28;20439;-62
2022/07/15 06:52:54;;;;;;;7.40;2.93;;;18.10;99.90;;;;;;5015885;28;20468;-61
2022/07/15 06:55:25;;;;;;;5.17;2.57;;;18.90;99.90;;;;;;5017858;28;20563;-62
2022/07/15 06:57:52;;;;;;;6.07;2.90;;;19.30;99.90;;;;;;5020605;28;20489;-62
2022/07/15 07:00:19;;;;;;;5.57;3.00;;;19.30;99.90;;;;;;5019638;28;20488;-62
2022/07/15 07:02:49;;;;;;;5.83;2.60;;;19.70;99.90;;;;;;5019882;28;20499;-62
2022/07/15 07:05:18;;;;;;;7.50;2.80;;;20.20;99.90;;;;;;5021299;28;20463;-61
2022/07/15 07:07:49;;;;;;;3.40;2.70;;;20.40;99.90;;;;;;5020610;28;20463;-63
2022/07/15 07:10:16;;;;;;;2.90;2.40;;;20.70;99.90;;;;;;5020388;28;20438;-62
2022/07/15 07:12:43;;;;;;;5.17;2.40;;;20.90;99.90;;;;;;5021003;28;20518;-62
2022/07/15 07:15:11;;;;;;;3.50;2.30;;;21.10;99.90;;;;;;5020639;28;20896;-61
2022/07/15 07:17:38;;;;;;;7.73;2.90;;;21.10;99.90;;;;;;5019699;28;20489;-62
2022/07/15 07:20:07;;;;;;;5.00;2.40;;;20.40;99.90;;;;;;5019797;28;20491;-61
2022/07/15 07:22:37;;;;;;;3.27;1.83;;;20.00;99.90;;;;;;5020694;28;20499;-62
2022/07/15 07:25:06;;;;;;;2.83;2.50;;;20.10;99.90;;;;;;5019702;28;20919;-62
2022/07/15 07:27:37;;;;;;;8.53;2.70;;;20.60;99.90;;;;;;4993470;28;20443;-62
2022/07/15 07:30:05;;;;;;;4.50;2.50;;;21.20;99.90;;;;;;5008179;28;20892;-62
2022/07/15 07:32:33;;;;;;;4.43;2.20;;;21.30;99.90;;;;;;5017043;28;20498;-61
2022/07/15 07:35:00;;;;;;;3.17;2.67;;;21.50;99.90;;;;;;5019219;28;20880;-62
2022/07/15 07:37:29;;;;;;;2.43;1.93;;;20.80;99.90;;;;;;5019580;28;20567;-61
2022/07/15 07:39:58;;;;;;;4.97;2.50;;;21.70;99.90;;;;;;5019985;28;20463;-62
2022/07/15 07:42:28;;;;;;;4.10;2.50;;;22.00;99.90;;;;;;5019553;28;20442;-62
2022/07/15 07:44:56;;;;;;;4.50;2.67;;;22.60;99.90;;;;;;5020256;28;20464;-62
2022/07/15 07:47:25;;;;;;;5.77;1.93;;;22.50;99.90;;;;;;5019795;28;20463;-61
2022/07/15 07:49:52;;;;;;;9.10;3.20;;;21.00;99.90;;;;;;5020089;28;20468;-61
2022/07/15 07:52:21;;;;;;;4.03;2.30;;;20.40;99.90;;;;;;5019242;28;20543;-61
2022/07/15 07:54:50;;;;;;;6.10;3.03;;;19.30;99.90;;;;;;5019453;28;20566;-61
2022/07/15 07:57:18;;;;;;;4.70;2.50;;;18.70;99.90;;;;;;5017871;28;20459;-61
2022/07/15 07:59:47;;;;;;;4.13;2.63;;;18.20;99.90;;;;;;5019242;28;20538;-61
2022/07/15 08:02:20;;;;;;;4.90;2.30;;;18.10;99.90;;;;;;5019031;28;20583;-61
2022/07/15 08:04:48;;;;;;;3.57;2.30;;;18.30;99.90;;;;;;5019637;28;20463;-60
2022/07/15 08:07:15;;;;;;;4.40;2.37;;;17.80;99.90;;;;;;5018398;28;20559;-61
2022/07/15 08:09:42;;;;;;;6.30;2.80;;;18.20;99.90;;;;;;5019135;28;20554;-61
2022/07/15 08:12:11;;;;;;;4.77;2.70;;;19.20;99.90;;;;;;5019158;28;20462;-60
2022/07/15 08:14:39;;;;;;;3.47;2.20;;;19.00;99.90;;;;;;5019592;28;20464;-61
2022/07/15 08:17:06;;;;;;;6.03;2.77;;;19.30;99.90;;;;;;5019813;28;20511;-61
2022/07/15 08:19:40;;;;;;;3.87;2.30;;;20.20;99.90;;;;;;5019649;28;20475;-61
2022/07/15 08:22:07;;;;;;;6.50;3.00;;;20.20;99.90;;;;;;5019215;28;20477;-62
2022/07/15 08:24:35;;;;;;;10.43;2.50;;;20.50;99.90;;;;;;5019506;28;20562;-62
2022/07/15 08:27:15;;;;;;;2.73;1.90;;;20.00;99.90;;;;;;5019519;28;20885;-61
2022/07/15 08:29:44;;;;;;;10.10;3.83;;;20.20;99.90;;;;;;5019131;28;20467;-61
2022/07/15 08:32:14;;;;;;;7.97;2.57;;;19.60;99.90;;;;;;5016529;28;20472;-60
2022/07/15 08:34:44;;;;;;;9.97;3.33;;;18.70;99.90;;;;;;5019130;28;20566;-61
2022/07/15 08:37:12;;;;;;;7.70;3.53;;;18.90;99.90;;;;;;5018485;28;20507;-62
2022/07/15 08:39:43;;;;;;;18.07;4.57;;;19.40;99.90;;;;;;5019266;28;20446;-62
2022/07/15 08:42:10;;;;;;;9.93;2.97;;;19.60;99.90;;;;;;5018507;28;20600;-62
2022/07/15 08:44:44;;;;;;;7.67;3.40;;;19.70;99.90;;;;;;5019021;28;20921;-62
2022/07/15 08:47:21;;;;;;;7.60;4.20;;;19.60;99.90;;;;;;5019144;28;20510;-61
2022/07/15 08:49:52;;;;;;;6.60;2.67;;;19.40;99.90;;;;;;5018897;28;20467;-61
2022/07/15 08:52:20;;;;;;;9.30;3.50;;;19.00;99.90;;;;;;5018711;28;20925;-61
2022/07/15 08:54:49;;;;;;;10.93;3.70;;;19.30;99.90;;;;;;5019108;28;20583;-62
2022/07/15 08:57:21;;;;;;;14.50;3.20;;;19.50;99.90;;;;;;5018818;28;20434;-61
2022/07/15 08:59:52;;;;;;;14.40;4.73;;;19.40;99.90;;;;;;5009095;28;20473;-61
2022/07/15 09:02:24;;;;;;;6.60;3.07;;;18.80;99.90;;;;;;4997989;28;20507;-61
2022/07/15 09:05:27;;;;;;;6.87;3.07;;;18.30;99.90;;;;;;4997810;28;20474;-61
2022/07/15 09:08:01;;;;;;;5.20;2.80;;;18.70;99.90;;;;;;4998127;28;20464;-61
2022/07/15 09:10:48;;;;;;;11.00;4.73;;;18.70;99.90;;;;;;4997734;28;20472;-61
2022/07/15 09:13:28;;;;;;;6.90;3.37;;;19.00;99.90;;;;;;4999060;28;20486;-62
2022/07/15 09:15:57;;;;;;;7.70;2.73;;;19.90;99.90;;;;;;4997998;28;20463;-62
2022/07/15 09:18:28;;;;;;;9.00;2.90;;;20.10;99.90;;;;;;4997689;28;20497;-62
2022/07/15 09:20:56;;;;;;;7.30;2.40;;;20.00;99.90;;;;;;4997615;28;20473;-62
2022/07/15 09:23:29;;;;;;;4.13;3.00;;;20.60;99.90;;;;;;4997720;28;20560;-62
2022/07/15 09:25:58;;;;;;;4.17;2.83;;;21.40;99.90;;;;;;4998730;28;20893;-62
2022/07/15 09:28:38;;;;;;;4.83;3.10;;;21.60;99.90;;;;;;4998011;28;20571;-62
2022/07/15 09:34:00;;;;;;;6.87;3.40;;;21.80;99.90;;;;;;4998080;28;20411;-62
2022/07/15 09:36:29;;;;;;;3.87;2.87;;;21.60;99.90;;;;;;4997116;28;20941;-62
2022/07/15 09:39:07;;;;;;;5.07;3.50;;;21.90;99.90;;;;;;4998276;28;20476;-63
2022/07/15 09:41:36;;;;;;;5.13;2.80;;;22.30;99.90;;;;;;4998105;28;20573;-62
2022/07/15 09:44:06;;;;;;;3.40;2.33;;;22.20;99.90;;;;;;4996746;28;20515;-62
2022/07/15 09:46:48;;;;;;;5.27;3.17;;;23.20;99.90;;;;;;4998245;28;20500;-62
2022/07/15 09:49:32;;;;;;;7.60;3.07;;;23.20;99.90;;;;;;4998524;28;20520;-63
2022/07/15 09:52:06;;;;;;;7.23;2.80;;;23.10;99.90;;;;;;4997882;28;20465;-63
2022/07/15 09:54:35;;;;;;;3.37;2.40;;;24.70;99.90;;;;;;4998581;28;20765;-62
2022/07/15 09:57:07;;;;;;;3.07;2.10;;;25.80;99.90;;;;;;4998182;28;20475;-62
2022/07/15 09:59:38;;;;;;;3.33;2.70;;;25.40;99.90;;;;;;4997306;28;20516;-62
2022/07/15 10:02:05;;;;;;;3.70;2.00;;;24.00;99.90;;;;;;4997801;28;20496;-62
2022/07/15 10:04:34;;;;;;;4.00;2.33;;;23.80;99.90;;;;;;4998259;28;20567;-62
2022/07/15 10:07:05;;;;;;;5.67;3.47;;;22.90;99.90;;;;;;4998074;28;20444;-62
2022/07/15 10:09:39;;;;;;;9.93;4.17;;;21.30;99.90;;;;;;4997955;28;20889;-62
2022/07/15 10:12:16;;;;;;;3.30;2.60;;;20.60;99.90;;;;;;4997917;28;20921;-62
2022/07/15 10:15:00;;;;;;;3.90;3.10;;;20.30;99.90;;;;;;4997903;28;20507;-61
2022/07/15 10:17:47;;;;;;;5.53;2.90;;;20.10;99.90;;;;;;4997585;28;20469;-61
2022/07/15 10:20:41;;;;;;;4.80;2.67;;;20.20;99.90;;;;;;4997442;28;20940;-61
2022/07/15 10:23:30;;;;;;;4.00;2.00;;;20.00;99.90;;;;;;5013410;28;20542;-61
2022/07/15 10:26:14;;;;;;;6.27;2.87;;;19.80;99.90;;;;;;5012903;28;20525;-61
2022/07/15 10:28:55;;;;;;;4.90;2.87;;;21.00;99.90;;;;;;5015450;28;20460;-62
2022/07/15 10:31:25;;;;;;;5.90;3.33;;;22.10;99.90;;;;;;5016209;28;20454;-63
2022/07/15 10:34:32;;;;;;;5.70;2.37;;;23.30;99.90;;;;;;5016885;28;20467;-62
2022/07/15 10:37:12;;;;;;;3.37;2.40;;;23.90;99.90;;;;;;4936815;29;20928;-62
2022/07/15 10:39:58;;;;;;;4.33;2.70;;;23.70;99.90;;;;;;4930647;29;20549;-61
2022/07/15 10:42:29;;;;;;;3.80;2.73;;;22.60;99.90;;;;;;4981607;28;20515;-62
2022/07/15 10:45:08;;;;;;;14.03;3.53;;;23.00;99.90;;;;;;4997039;28;20485;-62
2022/07/15 10:47:38;;;;;;;6.23;2.90;;;22.90;99.90;;;;;;4997153;28;20467;-62
2022/07/15 10:50:37;;;;;;;4.60;3.30;;;22.90;99.90;;;;;;4996945;28;20555;-62
2022/07/15 10:53:20;;;;;;;14.20;4.03;;;21.90;99.90;;;;;;4985617;28;20443;-61
2022/07/15 10:55:52;;;;;;;4.23;2.40;;;21.50;99.90;;;;;;5009969;28;20546;-62
2022/07/15 10:58:20;;;;;;;8.60;2.93;;;22.20;99.90;;;;;;5001105;28;20457;-61
2022/07/15 11:00:55;;;;;;;4.00;2.43;;;22.10;99.90;;;;;;5010146;28;20438;-60
2022/07/15 11:03:24;;;;;;;4.87;3.10;;;21.50;99.90;;;;;;5007822;28;20498;-61
2022/07/15 11:06:07;;;;;;;3.47;2.70;;;21.50;99.90;;;;;;4997235;28;20868;-61
2022/07/15 11:08:57;;;;;;;4.67;3.03;;;21.90;99.90;;;;;;4997383;28;20487;-61
2022/07/15 11:11:47;;;;;;;10.13;2.67;;;21.60;99.90;;;;;;4993945;28;20521;-62
2022/07/15 11:14:52;;;;;;;3.80;2.70;;;21.70;99.90;;;;;;4996773;28;20443;-61
2022/07/15 11:17:27;;;;;;;8.90;3.30;;;22.00;99.90;;;;;;4996675;28;20469;-61
2022/07/15 11:20:00;;;;;;;6.17;3.30;;;21.60;99.90;;;;;;4997211;28;20796;-61
2022/07/15 11:22:29;;;;;;;4.90;3.20;;;21.80;99.90;;;;;;4996899;28;20579;-61
2022/07/15 11:25:00;;;;;;;5.20;3.77;;;21.50;99.90;;;;;;4996274;28;20849;-61
2022/07/15 11:27:33;;;;;;;4.03;2.80;;;20.80;99.90;;;;;;4993857;28;20937;-61
2022/07/15 11:30:04;;;;;;;7.37;3.37;;;21.00;99.90;;;;;;4994392;28;20477;-61
2022/07/15 11:32:34;;;;;;;4.40;2.77;;;21.30;99.90;;;;;;4995973;28;20541;-61
2022/07/15 11:35:03;;;;;;;2.43;2.23;;;21.30;99.90;;;;;;4997463;28;20913;-61
2022/07/15 11:37:32;;;;;;;5.03;2.80;;;20.90;99.90;;;;;;5007550;28;20579;-61
2022/07/15 11:40:11;;;;;;;8.60;3.60;;;20.90;99.90;;;;;;5016400;28;20467;-61
2022/07/15 11:45:37;;;;;;;5.00;3.17;;;21.90;99.90;;;;;;5017760;28;20736;-61
2022/07/15 11:48:09;;;;;;;6.00;3.10;;;23.10;99.90;;;;;;5016518;28;20923;-61
2022/07/15 11:50:51;;;;;;;3.97;3.07;;;23.60;99.90;;;;;;5017916;28;20450;-61
2022/07/15 11:53:21;;;;;;;2.80;2.57;;;23.50;99.90;;;;;;5019565;28;20840;-61
2022/07/15 11:55:56;;;;;;;6.07;2.50;;;23.60;99.90;;;;;;5020094;28;20483;-61
2022/07/15 11:58:32;;;;;;;8.40;3.30;;;22.70;99.90;;;;;;5020058;28;20475;-62
2022/07/15 12:01:03;;;;;;;4.87;2.30;;;22.20;99.90;;;;;;5018054;28;20476;-60
2022/07/15 12:03:36;;;;;;;3.23;2.13;;;22.00;99.90;;;;;;5038186;28;20522;-59
2022/07/15 12:06:08;;;;;;;3.80;2.70;;;21.50;99.90;;;;;;5018203;28;20497;-61
2022/07/15 12:08:37;;;;;;;9.70;3.67;;;21.40;99.90;;;;;;5018376;28;20564;-61
2022/07/15 12:11:11;;;;;;;7.30;2.93;;;21.80;99.90;;;;;;5017132;28;20443;-61
2022/07/15 12:13:46;;;;;;;3.63;2.60;;;22.60;99.90;;;;;;5015261;28;20446;-61
2022/07/15 12:16:19;;;;;;;6.17;2.40;;;23.20;99.90;;;;;;5018181;28;20551;-61
2022/07/15 12:18:49;;;;;;;11.47;3.10;;;23.70;99.90;;;;;;5018715;28;20434;-62
2022/07/15 12:21:19;;;;;;;4.07;2.90;;;24.10;99.90;;;;;;5017253;28;20446;-62
2022/07/15 12:24:03;;;;;;;8.47;2.70;;;24.90;99.90;;;;;;5018842;28;20500;-61
2022/07/15 12:26:33;;;;;;;3.70;3.20;;;24.50;99.90;;;;;;5018342;28;20475;-61
2022/07/15 12:29:02;;;;;;;4.63;2.80;;;24.60;99.90;;;;;;5016984;28;20450;-62
2022/07/15 12:31:44;;;;;;;7.37;2.50;;;24.80;99.90;;;;;;5018354;28;20558;-62
2022/07/15 12:34:13;;;;;;;6.60;2.50;;;24.30;99.90;;;;;;5018892;28;20529;-60
2022/07/15 12:36:41;;;;;;;4.27;2.90;;;23.30;99.90;;;;;;5018387;28;20490;-60
2022/07/15 12:39:18;;;;;;;4.80;2.63;;;22.90;99.90;;;;;;5019204;28;20892;-61
2022/07/15 12:42:00;;;;;;;8.40;2.50;;;22.90;99.90;;;;;;5018329;28;20500;-61
2022/07/15 12:44:28;;;;;;;4.67;2.37;;;22.20;99.90;;;;;;5018460;28;20538;-61
2022/07/15 12:47:00;;;;;;;10.67;3.23;;;21.40;99.90;;;;;;5019160;28;20971;-61
2022/07/15 12:49:50;;;;;;;7.00;3.27;;;21.30;99.90;;;;;;5018784;28;20877;-60
2022/07/15 12:52:38;;;;;;;28.60;4.97;;;21.20;99.90;;;;;;5018870;28;20463;-61
2022/07/15 12:55:19;;;;;;;24.77;4.10;;;21.70;99.90;;;;;;5018213;28;20891;-61
2022/07/15 12:57:48;;;;;;;7.77;2.73;;;22.60;99.90;;;;;;5018453;28;20741;-62
2022/07/15 13:00:18;;;;;;;3.60;2.47;;;23.30;99.90;;;;;;5018550;28;20501;-61
2022/07/15 13:03:00;;;;;;;3.63;2.03;;;22.90;99.90;;;;;;5017782;28;20499;-61
2022/07/15 13:05:31;;;;;;;2.90;2.60;;;22.80;99.90;;;;;;5018057;28;20558;-61
2022/07/15 13:07:59;;;;;;;2.60;1.90;;;22.90;99.90;;;;;;5018777;28;20859;-61
2022/07/15 13:10:29;;;;;;;3.63;2.20;;;22.40;99.90;;;;;;5018750;28;20885;-61
2022/07/15 13:13:00;;;;;;;4.07;2.17;;;22.00;99.90;;;;;;5018684;28;20797;-62